Time;durP1;ratioP1;P1;durP2;ratioP2;P2;SDS_P1;SDS_P2;PMS_P1;PMS_P2;Temp;Humidity;BMP_temperature;BMP_pressure;BME280_temperature;BME280_humidity;BME280_pressure;Samples;Min_cycle;Max_cycle;Signal;HPM_P1;HPM_P2
2022/07/30 00:02:47;;;;;;;5.05;1.70;;;26.20;49.50;;;;;;6274728;28;20075;-74
2022/07/30 00:05:49;;;;;;;2.08;1.60;;;26.20;49.60;;;;;;6280157;28;20060;-76
2022/07/30 00:08:49;;;;;;;2.35;1.60;;;26.10;49.60;;;;;;6298611;28;20040;-75
2022/07/30 00:11:50;;;;;;;3.83;1.70;;;26.10;49.80;;;;;;6299178;28;20068;-75
2022/07/30 00:14:51;;;;;;;1.45;1.33;;;26.10;49.90;;;;;;6280616;28;20117;-75
2022/07/30 00:17:52;;;;;;;2.28;1.70;;;26.00;49.90;;;;;;6297111;28;20052;-75
2022/07/30 00:20:53;;;;;;;2.10;1.45;;;26.00;50.00;;;;;;6283349;28;20070;-75
2022/07/30 00:23:54;;;;;;;4.85;1.92;;;26.00;50.30;;;;;;6280939;28;20045;-75
2022/07/30 00:26:55;;;;;;;4.57;1.42;;;26.00;50.50;;;;;;6295674;28;20032;-75
2022/07/30 00:29:56;;;;;;;2.45;1.80;;;25.90;50.60;;;;;;6280891;28;20075;-75
2022/07/30 00:32:57;;;;;;;2.05;1.63;;;25.90;51.30;;;;;;6297120;28;20040;-75
2022/07/30 00:35:58;;;;;;;4.90;2.47;;;25.80;50.80;;;;;;6313990;28;20029;-74
2022/07/30 00:38:59;;;;;;;4.95;2.30;;;25.80;50.90;;;;;;6314012;28;20480;-74
2022/07/30 00:42:02;;;;;;;4.22;2.03;;;25.70;50.90;;;;;;6280150;28;20139;-74
2022/07/30 00:45:05;;;;;;;4.88;2.15;;;25.70;50.90;;;;;;6291784;28;20047;-74
2022/07/30 00:48:05;;;;;;;5.82;1.55;;;25.60;51.70;;;;;;6288789;28;20029;-74
2022/07/30 00:51:06;;;;;;;2.78;1.60;;;25.60;51.40;;;;;;6288729;28;20377;-76
2022/07/30 00:54:07;;;;;;;2.25;1.48;;;25.50;51.40;;;;;;6297676;28;20093;-76
2022/07/30 00:57:08;;;;;;;3.45;1.95;;;25.50;51.60;;;;;;6296571;28;20036;-74
2022/07/30 01:00:13;;;;;;;2.47;1.77;;;25.50;51.60;;;;;;6296747;28;20086;-75
2022/07/30 01:03:14;;;;;;;3.40;1.90;;;25.50;51.70;;;;;;6298183;28;20037;-76
2022/07/30 01:06:15;;;;;;;3.08;1.80;;;25.50;51.80;;;;;;6280996;28;20385;-75
2022/07/30 01:09:16;;;;;;;3.03;1.73;;;25.50;51.90;;;;;;6314299;28;20028;-75
2022/07/30 01:12:22;;;;;;;2.38;1.70;;;25.50;52.00;;;;;;6297857;28;20036;-75
2022/07/30 01:15:23;;;;;;;6.10;1.77;;;25.40;52.10;;;;;;6313318;28;20082;-75
2022/07/30 01:19:47;;;;;;;2.42;1.67;;;25.40;52.30;;;;;;6297483;28;20452;-75
2022/07/30 01:21:58;;;;;;;2.55;1.60;;;25.30;52.50;;;;;;6295700;28;20029;-74
2022/07/30 01:25:43;;;;;;;1.90;1.60;;;25.30;52.80;;;;;;6277858;28;20020;-75
2022/07/30 01:28:50;;;;;;;6.45;1.60;;;25.20;53.00;;;;;;6210690;28;20055;-75
2022/07/30 01:31:58;;;;;;;6.45;1.67;;;25.20;53.00;;;;;;6227033;28;20037;-75
2022/07/30 01:35:01;;;;;;;3.80;1.95;;;25.20;53.20;;;;;;6212498;28;20064;-74
2022/07/30 01:38:04;;;;;;;1.70;1.30;;;25.10;53.30;;;;;;6211260;28;20159;-74
2022/07/30 01:41:07;;;;;;;3.42;1.52;;;25.00;53.30;;;;;;6228239;28;20038;-75
2022/07/30 01:44:11;;;;;;;4.13;1.80;;;25.00;53.30;;;;;;6227106;28;20029;-75
2022/07/30 01:47:14;;;;;;;5.10;1.60;;;25.10;53.40;;;;;;6227075;28;20119;-75
2022/07/30 01:50:16;;;;;;;2.63;1.60;;;25.00;53.20;;;;;;6226421;28;20029;-75
2022/07/30 01:53:19;;;;;;;1.90;1.70;;;25.00;53.20;;;;;;6210338;28;20378;-76
2022/07/30 01:56:23;;;;;;;3.42;2.00;;;25.00;53.20;;;;;;6226887;28;20037;-75
2022/07/30 01:59:27;;;;;;;3.17;1.70;;;25.10;53.30;;;;;;6243404;28;20048;-75
2022/07/30 02:02:28;;;;;;;6.70;1.75;;;25.00;53.20;;;;;;6242791;28;20033;-76
2022/07/30 02:05:32;;;;;;;1.95;1.65;;;25.00;53.30;;;;;;6277383;28;20033;-75
2022/07/30 02:08:42;;;;;;;1.90;1.70;;;25.00;53.40;;;;;;6294608;28;20033;-75
2022/07/30 02:15:28;;;;;;;4.82;1.60;;;25.00;53.40;;;;;;6291845;28;20029;-76
2022/07/30 02:18:37;;;;;;;5.72;2.15;;;25.00;53.50;;;;;;6271275;28;20484;-74
2022/07/30 02:21:45;;;;;;;3.70;1.92;;;25.00;53.50;;;;;;6293979;28;20036;-74
2022/07/30 02:24:49;;;;;;;3.28;2.05;;;24.90;53.60;;;;;;6293733;28;20120;-74
2022/07/30 02:27:57;;;;;;;4.55;1.75;;;24.90;53.70;;;;;;6293573;28;20033;-74
2022/07/30 02:31:01;;;;;;;4.03;1.67;;;25.00;53.60;;;;;;6276520;28;20483;-74
2022/07/30 02:34:05;;;;;;;3.42;2.40;;;25.10;53.40;;;;;;6292784;28;20473;-76
2022/07/30 02:37:10;;;;;;;4.20;2.03;;;25.10;53.20;;;;;;6295129;28;20035;-75
2022/07/30 02:40:17;;;;;;;7.68;2.33;;;25.00;53.30;;;;;;6278843;28;20036;-75
2022/07/30 02:43:20;;;;;;;5.05;2.00;;;24.90;53.30;;;;;;6287287;28;20036;-75
2022/07/30 02:46:22;;;;;;;4.90;2.33;;;24.80;53.40;;;;;;6269730;28;20043;-74
2022/07/30 02:49:44;;;;;;;12.68;2.20;;;24.70;53.60;;;;;;6307510;28;20412;-75
2022/07/30 02:52:47;;;;;;;4.13;2.10;;;24.60;53.80;;;;;;6289956;28;20056;-75
2022/07/30 02:55:50;;;;;;;6.20;2.80;;;24.50;54.00;;;;;;6293814;28;20037;-75
2022/07/30 02:58:53;;;;;;;5.45;2.15;;;24.40;54.20;;;;;;6294450;28;20479;-75
2022/07/30 03:01:55;;;;;;;3.80;2.25;;;24.40;54.40;;;;;;6276334;28;20079;-75
2022/07/30 03:04:58;;;;;;;2.63;2.00;;;24.30;54.50;;;;;;6293283;28;20075;-75
2022/07/30 03:08:00;;;;;;;4.32;2.05;;;24.40;54.60;;;;;;6293647;28;20040;-75
2022/07/30 03:11:02;;;;;;;6.47;1.60;;;24.40;54.60;;;;;;6293423;28;20484;-75
2022/07/30 03:14:03;;;;;;;4.20;1.83;;;24.40;54.70;;;;;;6284257;28;20098;-76
2022/07/30 03:17:06;;;;;;;3.45;2.17;;;24.40;54.80;;;;;;6268377;28;20029;-75
2022/07/30 03:20:10;;;;;;;4.22;1.77;;;24.40;55.10;;;;;;6268583;28;20037;-74
2022/07/30 03:23:13;;;;;;;3.55;2.10;;;24.50;55.30;;;;;;6268534;28;20048;-75
2022/07/30 03:26:18;;;;;;;5.07;2.20;;;24.40;55.30;;;;;;6268471;28;20044;-74
2022/07/30 03:29:21;;;;;;;2.63;1.85;;;24.40;55.40;;;;;;6267932;28;20112;-75
2022/07/30 03:32:22;;;;;;;2.67;1.80;;;24.40;55.40;;;;;;6264451;28;20036;-75
2022/07/30 03:35:25;;;;;;;5.47;2.03;;;24.30;55.20;;;;;;6293106;28;20032;-74
2022/07/30 03:38:27;;;;;;;2.67;1.95;;;24.50;55.20;;;;;;6309031;28;20496;-74
2022/07/30 03:41:29;;;;;;;5.60;1.65;;;24.40;55.20;;;;;;6297454;28;20032;-75
2022/07/30 03:44:32;;;;;;;2.05;1.70;;;24.40;55.50;;;;;;6271690;28;20036;-74
2022/07/30 03:47:37;;;;;;;2.92;1.83;;;24.30;55.70;;;;;;6296964;28;20044;-74
2022/07/30 03:50:40;;;;;;;2.72;1.90;;;24.30;56.40;;;;;;6297719;28;20051;-74
2022/07/30 03:53:42;;;;;;;3.60;2.08;;;24.30;55.80;;;;;;6297485;28;20135;-74
2022/07/30 03:57:03;;;;;;;4.25;2.33;;;24.20;55.80;;;;;;6297097;28;20369;-74
2022/07/30 04:00:14;;;;;;;9.00;2.35;;;24.20;55.80;;;;;;6296767;28;20032;-74
2022/07/30 04:03:30;;;;;;;4.28;2.40;;;24.20;55.80;;;;;;6281289;28;20068;-75
2022/07/30 04:06:39;;;;;;;3.83;2.00;;;24.10;55.90;;;;;;6297309;28;20028;-74
2022/07/30 04:09:40;;;;;;;6.50;2.58;;;24.10;56.10;;;;;;6294686;28;20052;-75
2022/07/30 04:12:59;;;;;;;7.57;2.17;;;24.00;56.10;;;;;;6305794;28;20045;-75
2022/07/30 04:16:13;;;;;;;3.63;2.13;;;24.00;56.80;;;;;;6255935;28;20045;-75
2022/07/30 04:19:30;;;;;;;3.38;2.03;;;24.00;56.30;;;;;;6291450;28;20120;-74
2022/07/30 04:22:34;;;;;;;4.53;2.13;;;23.90;56.40;;;;;;6274297;28;20028;-75
2022/07/30 04:25:37;;;;;;;4.93;2.53;;;23.90;56.50;;;;;;6290315;28;20049;-74
2022/07/30 04:28:38;;;;;;;2.20;1.83;;;23.90;56.80;;;;;;6273715;28;20028;-75
2022/07/30 04:31:39;;;;;;;3.35;2.22;;;23.90;56.60;;;;;;6279825;28;20056;-74
2022/07/30 04:34:56;;;;;;;3.20;2.45;;;23.90;56.60;;;;;;6283783;28;20039;-75
2022/07/30 04:38:15;;;;;;;2.83;1.85;;;23.90;56.50;;;;;;6297236;28;20028;-76
2022/07/30 04:41:20;;;;;;;3.28;1.85;;;24.00;56.50;;;;;;6273093;28;20041;-74
2022/07/30 04:44:39;;;;;;;8.45;2.03;;;24.00;56.40;;;;;;6289638;28;20045;-75
2022/07/30 04:48:07;;;;;;;2.55;2.15;;;24.00;56.40;;;;;;6290175;28;20127;-75
2022/07/30 04:51:35;;;;;;;3.78;1.98;;;23.90;56.30;;;;;;6266940;28;20378;-74
2022/07/30 04:54:41;;;;;;;2.97;2.10;;;23.90;57.20;;;;;;6253944;28;20086;-74
2022/07/30 04:57:43;;;;;;;2.72;1.75;;;23.90;56.50;;;;;;6271563;28;20469;-74
2022/07/30 05:00:45;;;;;;;4.20;1.98;;;23.90;56.50;;;;;;6254475;28;20025;-75
2022/07/30 05:03:52;;;;;;;8.75;2.08;;;23.90;56.60;;;;;;6288164;28;20465;-76
2022/07/30 05:06:53;;;;;;;2.65;1.73;;;23.90;56.60;;;;;;6296044;28;20369;-74
2022/07/30 05:09:54;;;;;;;2.67;1.85;;;23.90;56.50;;;;;;6279120;28;20323;-74
2022/07/30 05:12:55;;;;;;;2.92;1.73;;;23.90;56.50;;;;;;6274464;28;20045;-76
2022/07/30 05:15:57;;;;;;;3.30;1.70;;;23.90;56.50;;;;;;6266393;28;20037;-74
2022/07/30 05:18:59;;;;;;;4.43;1.95;;;23.90;56.50;;;;;;6271371;28;20033;-74
2022/07/30 05:22:01;;;;;;;2.85;2.17;;;23.90;56.50;;;;;;6254502;28;20469;-74
2022/07/30 05:25:03;;;;;;;3.22;1.98;;;24.00;56.70;;;;;;6254760;28;20125;-74
2022/07/30 05:28:04;;;;;;;2.58;1.67;;;23.90;56.70;;;;;;6286956;28;20481;-74
2022/07/30 05:31:05;;;;;;;2.10;1.70;;;23.90;56.70;;;;;;6256248;28;20120;-73
2022/07/30 05:34:06;;;;;;;2.13;1.65;;;23.90;56.90;;;;;;6295226;28;20040;-76
2022/07/30 05:37:18;;;;;;;1.90;1.67;;;23.90;56.90;;;;;;6277409;28;20048;-74
2022/07/30 05:40:20;;;;;;;4.50;1.85;;;23.90;56.90;;;;;;6293431;28;20108;-74
2022/07/30 05:43:58;;;;;;;6.13;2.13;;;23.90;56.90;;;;;;6284757;28;20032;-74
2022/07/30 05:46:59;;;;;;;4.65;2.05;;;23.90;56.80;;;;;;6270877;28;20484;-75
2022/07/30 05:50:00;;;;;;;7.40;2.10;;;24.00;56.80;;;;;;6292625;28;20040;-75
2022/07/30 05:53:22;;;;;;;4.00;2.30;;;24.00;56.70;;;;;;6288142;28;20116;-74
2022/07/30 05:56:46;;;;;;;3.70;2.20;;;24.00;56.80;;;;;;6157938;28;20038;-74
2022/07/30 05:59:51;;;;;;;4.32;2.10;;;24.00;56.70;;;;;;6145671;28;20078;-75
2022/07/30 06:03:15;;;;;;;4.57;2.30;;;24.00;56.70;;;;;;6106215;29;20040;-75
2022/07/30 06:06:42;;;;;;;2.80;1.92;;;24.10;56.60;;;;;;6104358;29;20055;-74
2022/07/30 06:09:44;;;;;;;3.17;2.05;;;24.10;56.50;;;;;;6127687;29;20043;-75
2022/07/30 06:12:45;;;;;;;3.28;2.20;;;24.20;56.40;;;;;;6124823;29;20118;-75
2022/07/30 06:15:47;;;;;;;6.55;2.60;;;24.20;56.30;;;;;;6133890;28;20035;-74
2022/07/30 06:18:48;;;;;;;4.20;2.20;;;24.30;56.20;;;;;;6136646;29;20216;-74
2022/07/30 06:22:00;;;;;;;3.65;2.15;;;24.30;56.10;;;;;;6135998;28;20074;-76
2022/07/30 06:25:02;;;;;;;8.02;2.20;;;24.40;55.90;;;;;;6136175;28;20170;-76
2022/07/30 06:28:03;;;;;;;7.47;2.60;;;24.50;55.70;;;;;;6136162;28;20928;-75
2022/07/30 06:31:05;;;;;;;2.78;2.08;;;24.60;55.40;;;;;;6135513;28;20039;-75
2022/07/30 06:34:06;;;;;;;5.63;1.88;;;24.60;55.30;;;;;;6172670;28;20133;-76
2022/07/30 06:37:11;;;;;;;4.65;2.03;;;24.70;55.10;;;;;;6188013;28;20030;-75
2022/07/30 06:40:15;;;;;;;7.40;2.30;;;24.80;54.90;;;;;;6242534;28;20173;-76
2022/07/30 06:43:32;;;;;;;7.88;2.40;;;24.90;54.70;;;;;;6274251;28;20028;-73
2022/07/30 06:47:09;;;;;;;3.85;2.20;;;25.00;54.50;;;;;;6227703;28;20050;-74
2022/07/30 06:50:12;;;;;;;3.30;2.13;;;24.90;54.20;;;;;;6232046;28;20062;-77
2022/07/30 06:53:13;;;;;;;3.05;2.25;;;25.10;54.00;;;;;;6182411;28;20129;-75
2022/07/30 06:56:40;;;;;;;3.95;1.90;;;25.20;53.70;;;;;;6174535;28;20058;-76
2022/07/30 06:59:42;;;;;;;3.13;1.80;;;25.20;53.40;;;;;;6159836;28;20034;-75
2022/07/30 07:02:59;;;;;;;3.88;2.30;;;25.20;53.40;;;;;;6174429;28;20045;-75
2022/07/30 07:06:09;;;;;;;5.45;2.30;;;25.30;53.30;;;;;;6165093;28;20459;-77
2022/07/30 07:09:10;;;;;;;3.58;2.10;;;25.40;53.20;;;;;;6174761;28;20542;-75
2022/07/30 07:12:19;;;;;;;2.78;2.17;;;25.60;53.00;;;;;;6174485;28;20376;-75
2022/07/30 07:15:21;;;;;;;3.78;2.28;;;25.70;52.60;;;;;;6161391;28;20034;-74
2022/07/30 07:18:22;;;;;;;7.35;2.30;;;25.80;52.40;;;;;;6179130;28;20054;-75
2022/07/30 07:21:28;;;;;;;3.80;2.40;;;26.00;52.20;;;;;;6243828;28;20033;-74
2022/07/30 07:24:29;;;;;;;4.20;2.40;;;26.10;51.80;;;;;;6278943;28;20062;-76
2022/07/30 07:27:37;;;;;;;2.67;2.00;;;26.30;51.50;;;;;;6278998;28;20369;-75
2022/07/30 07:30:40;;;;;;;6.90;2.22;;;26.30;51.30;;;;;;6294291;28;20040;-75
2022/07/30 07:33:42;;;;;;;5.78;2.03;;;26.40;51.30;;;;;;6293565;28;20040;-76
2022/07/30 07:36:43;;;;;;;4.65;2.10;;;26.50;51.70;;;;;;6277979;28;20050;-76
2022/07/30 07:39:44;;;;;;;3.75;2.58;;;26.70;50.80;;;;;;6292984;28;20044;-76
2022/07/30 07:42:45;;;;;;;6.30;2.45;;;26.80;50.40;;;;;;6306339;28;20452;-76
2022/07/30 07:45:48;;;;;;;3.42;2.00;;;26.80;50.30;;;;;;6269599;28;20108;-74
2022/07/30 07:48:49;;;;;;;7.45;2.03;;;26.90;50.30;;;;;;6285567;28;20094;-75
2022/07/30 07:51:58;;;;;;;4.47;2.53;;;26.90;50.20;;;;;;6270863;28;20057;-76
2022/07/30 07:54:59;;;;;;;3.45;2.00;;;27.10;50.00;;;;;;6254312;28;20045;-76
2022/07/30 07:58:01;;;;;;;5.47;2.00;;;27.20;49.70;;;;;;6279344;28;20025;-75
2022/07/30 08:01:02;;;;;;;5.60;2.05;;;27.20;49.50;;;;;;6278051;28;20035;-76
2022/07/30 08:04:23;;;;;;;3.20;2.10;;;27.30;49.30;;;;;;6293710;28;20063;-76
2022/07/30 08:07:44;;;;;;;3.60;1.75;;;27.50;49.10;;;;;;6280849;28;20374;-75
2022/07/30 08:11:05;;;;;;;1.83;1.60;;;27.60;48.60;;;;;;6289269;28;20037;-76
2022/07/30 08:14:26;;;;;;;6.03;1.60;;;27.70;48.20;;;;;;6276164;28;20124;-75
2022/07/30 08:17:46;;;;;;;2.70;1.80;;;27.90;47.40;;;;;;6268749;28;20036;-76
2022/07/30 08:20:52;;;;;;;3.50;1.98;;;28.00;46.90;;;;;;6251604;28;20121;-75
2022/07/30 08:24:04;;;;;;;3.00;2.13;;;28.20;46.50;;;;;;6269288;28;20033;-75
2022/07/30 08:27:05;;;;;;;2.85;2.17;;;28.20;46.40;;;;;;6269784;28;20102;-76
2022/07/30 08:30:08;;;;;;;6.95;1.80;;;28.30;46.20;;;;;;6269403;28;20036;-76
2022/07/30 08:33:09;;;;;;;2.50;1.75;;;28.40;45.80;;;;;;6289558;28;20052;-76
2022/07/30 08:36:10;;;;;;;7.40;1.73;;;28.50;44.90;;;;;;6277264;28;20033;-75
2022/07/30 08:39:12;;;;;;;7.25;1.77;;;28.60;44.40;;;;;;6293727;28;20037;-76
2022/07/30 08:42:13;;;;;;;4.07;2.00;;;28.60;44.00;;;;;;6284372;28;20068;-74
2022/07/30 08:45:17;;;;;;;3.35;2.03;;;28.70;43.90;;;;;;6266341;28;20051;-74
2022/07/30 08:48:20;;;;;;;2.38;1.50;;;28.80;43.60;;;;;;6267607;28;20051;-76
2022/07/30 08:51:22;;;;;;;6.70;2.10;;;28.90;43.20;;;;;;6250789;28;20537;-77
2022/07/30 08:54:55;;;;;;;4.97;1.98;;;29.00;42.90;;;;;;6254369;28;20458;-75
2022/07/30 08:57:56;;;;;;;1.70;1.30;;;29.00;42.60;;;;;;6269216;28;20036;-75
2022/07/30 09:00:57;;;;;;;5.25;1.65;;;29.20;42.50;;;;;;6269336;28;20365;-75
2022/07/30 09:03:58;;;;;;;7.93;2.00;;;29.20;42.20;;;;;;6277263;28;20086;-75
2022/07/30 09:07:01;;;;;;;1.95;1.70;;;29.40;42.10;;;;;;6277033;28;20021;-75
2022/07/30 09:10:04;;;;;;;5.78;1.70;;;29.50;41.60;;;;;;6308998;28;20028;-76
2022/07/30 09:13:40;;;;;;;5.75;1.67;;;29.60;41.30;;;;;;6276846;28;20456;-75
2022/07/30 09:16:43;;;;;;;3.00;1.70;;;29.60;41.20;;;;;;6289449;28;20060;-76
2022/07/30 09:20:02;;;;;;;2.67;1.80;;;29.70;41.00;;;;;;6275035;28;20052;-75
2022/07/30 09:23:06;;;;;;;6.88;1.77;;;29.80;40.50;;;;;;6274821;28;20032;-77
2022/07/30 09:27:35;;;;;;;7.90;1.70;;;29.90;40.30;;;;;;6213844;28;20034;-76
2022/07/30 09:30:56;;;;;;;2.80;1.70;;;29.90;39.60;;;;;;6195550;28;20368;-74
2022/07/30 09:34:33;;;;;;;1.90;1.67;;;29.90;39.80;;;;;;6220004;28;20088;-76
2022/07/30 09:37:37;;;;;;;3.78;1.70;;;30.00;40.00;;;;;;6208929;28;20037;-76
2022/07/30 09:41:15;;;;;;;4.95;1.50;;;30.10;39.70;;;;;;6186972;28;20050;-75
2022/07/30 09:44:23;;;;;;;6.35;2.47;;;30.20;39.50;;;;;;6196266;28;20480;-75
2022/07/30 09:47:32;;;;;;;3.28;1.70;;;30.30;39.50;;;;;;6178468;28;20038;-76
2022/07/30 09:50:33;;;;;;;2.08;1.63;;;30.40;39.50;;;;;;6194826;28;20034;-76
2022/07/30 09:53:35;;;;;;;6.63;1.95;;;30.50;39.40;;;;;;6196138;28;20130;-76
2022/07/30 09:56:36;;;;;;;9.60;2.00;;;30.60;39.50;;;;;;6178388;28;20507;-77
2022/07/30 09:59:37;;;;;;;2.03;1.80;;;30.60;39.30;;;;;;6179361;28;20058;-75
2022/07/30 10:02:39;;;;;;;3.03;2.30;;;30.70;39.30;;;;;;6194223;28;20054;-74
2022/07/30 10:05:54;;;;;;;3.92;2.10;;;30.80;39.20;;;;;;6180390;28;20038;-75
2022/07/30 10:08:55;;;;;;;3.80;2.13;;;30.80;39.20;;;;;;6195309;28;20126;-74
2022/07/30 10:11:58;;;;;;;3.30;1.80;;;30.80;38.90;;;;;;6178760;28;20046;-75
2022/07/30 10:15:01;;;;;;;5.57;1.65;;;30.90;38.80;;;;;;6235642;28;20059;-75
2022/07/30 10:18:05;;;;;;;1.50;1.40;;;30.90;38.40;;;;;;6270167;28;20036;-74
2022/07/30 10:21:27;;;;;;;3.63;1.27;;;31.00;37.50;;;;;;6270072;28;20033;-75
2022/07/30 10:24:47;;;;;;;2.88;1.17;;;31.10;36.70;;;;;;6268497;28;20037;-76
2022/07/30 10:28:09;;;;;;;9.50;1.77;;;31.20;36.60;;;;;;6240694;28;20116;-73
2022/07/30 10:31:10;;;;;;;4.88;1.50;;;31.30;36.60;;;;;;6223134;28;20069;-74
2022/07/30 10:34:27;;;;;;;4.63;1.55;;;31.30;36.20;;;;;;6216394;28;20051;-75
2022/07/30 10:37:31;;;;;;;2.45;1.60;;;31.40;35.50;;;;;;6177067;28;20062;-76
2022/07/30 10:40:57;;;;;;;3.35;2.28;;;31.50;35.50;;;;;;6193767;28;20029;-75
2022/07/30 10:44:08;;;;;;;1.92;1.50;;;31.60;35.40;;;;;;6215972;28;20034;-75
2022/07/30 10:47:13;;;;;;;5.43;1.40;;;31.80;34.40;;;;;;6204197;28;20033;-74
2022/07/30 10:50:17;;;;;;;6.55;1.80;;;31.80;34.50;;;;;;6241214;28;20065;-76
2022/07/30 10:53:47;;;;;;;6.90;1.60;;;32.00;34.50;;;;;;6216586;28;20042;-77
2022/07/30 10:57:08;;;;;;;3.92;1.48;;;32.10;33.20;;;;;;6141853;28;20409;-76
2022/07/30 11:00:10;;;;;;;1.60;1.42;;;32.10;33.10;;;;;;6140051;28;20368;-75
2022/07/30 11:03:15;;;;;;;2.05;1.25;;;32.20;32.60;;;;;;6142491;28;20036;-76
2022/07/30 11:06:16;;;;;;;2.20;1.45;;;32.50;31.50;;;;;;6188315;28;20910;-75
2022/07/30 11:09:41;;;;;;;8.48;1.38;;;33.00;31.10;;;;;;6189997;28;20042;-76
2022/07/30 11:12:46;;;;;;;15.00;1.10;;;33.90;29.70;;;;;;6190004;28;20042;-76
2022/07/30 11:15:58;;;;;;;1.80;1.10;;;34.30;28.70;;;;;;6190884;28;20045;-76
2022/07/30 11:19:10;;;;;;;1.52;1.00;;;34.60;28.20;;;;;;6190388;28;20068;-75
2022/07/30 11:22:25;;;;;;;2.08;0.98;;;34.80;27.80;;;;;;6174934;28;20073;-75
2022/07/30 11:25:28;;;;;;;1.60;1.15;;;35.20;27.50;;;;;;6190267;28;20452;-75
2022/07/30 11:28:40;;;;;;;3.72;1.10;;;35.40;27.10;;;;;;6190783;28;20097;-76
2022/07/30 11:31:42;;;;;;;4.65;1.52;;;35.50;26.70;;;;;;6190302;28;20137;-76
2022/07/30 11:34:43;;;;;;;4.72;1.30;;;35.90;26.80;;;;;;6260972;28;20045;-76
2022/07/30 11:38:02;;;;;;;1.48;1.08;;;36.50;25.70;;;;;;6248308;28;20381;-75
2022/07/30 11:41:04;;;;;;;2.03;1.20;;;36.80;25.00;;;;;;6285308;28;20579;-74
2022/07/30 11:44:24;;;;;;;1.42;1.00;;;37.20;24.40;;;;;;6276335;28;20040;-75
2022/07/30 11:47:27;;;;;;;1.08;0.90;;;37.70;23.70;;;;;;6286265;28;20526;-75
2022/07/30 11:50:31;;;;;;;3.45;0.98;;;37.80;23.50;;;;;;6271830;28;20143;-75
2022/07/30 11:53:32;;;;;;;1.30;0.85;;;37.60;23.50;;;;;;6281919;28;20120;-74
2022/07/30 11:56:33;;;;;;;1.70;0.90;;;37.50;23.60;;;;;;6265438;28;20041;-75
2022/07/30 11:59:54;;;;;;;1.20;1.08;;;37.40;23.20;;;;;;6271656;28;20064;-75
2022/07/30 12:02:55;;;;;;;1.60;0.95;;;36.70;23.80;;;;;;6277143;28;20033;-77
2022/07/30 12:06:18;;;;;;;1.95;0.95;;;36.40;23.90;;;;;;6294219;28;20165;-74
2022/07/30 12:09:23;;;;;;;5.57;0.90;;;36.10;23.90;;;;;;6275058;28;20416;-75
2022/07/30 12:12:24;;;;;;;3.58;0.73;;;36.40;23.70;;;;;;6278100;28;20491;-75
2022/07/30 12:15:34;;;;;;;1.67;0.90;;;36.50;23.20;;;;;;6293759;28;20037;-75
2022/07/30 12:18:35;;;;;;;4.65;2.22;;;36.60;23.70;;;;;;6276722;28;20037;-75
2022/07/30 12:21:36;;;;;;;3.08;0.90;;;37.00;22.70;;;;;;6296248;28;20369;-75
2022/07/30 12:24:37;;;;;;;1.80;0.70;;;37.00;22.60;;;;;;6306432;28;20040;-75
2022/07/30 12:27:38;;;;;;;3.08;0.77;;;37.00;22.20;;;;;;6279246;28;20071;-75
2022/07/30 12:30:40;;;;;;;0.70;0.70;;;36.80;22.10;;;;;;6294377;28;20536;-74
2022/07/30 12:33:41;;;;;;;1.73;0.80;;;36.40;22.30;;;;;;6294599;28;20032;-74
2022/07/30 12:36:42;;;;;;;1.70;0.63;;;36.00;22.70;;;;;;6293937;28;20040;-76
2022/07/30 12:39:42;;;;;;;2.85;0.70;;;35.50;23.30;;;;;;6291345;28;20040;-75
2022/07/30 12:42:52;;;;;;;1.63;0.60;;;35.50;23.10;;;;;;6306909;28;20044;-75
2022/07/30 12:45:58;;;;;;;2.10;0.70;;;35.30;22.50;;;;;;6266599;28;20139;-75
2022/07/30 12:49:04;;;;;;;2.25;0.68;;;35.10;22.90;;;;;;6251229;28;20040;-75
2022/07/30 12:52:05;;;;;;;0.75;0.70;;;35.00;23.00;;;;;;6269286;28;20072;-75
2022/07/30 12:55:09;;;;;;;1.42;0.60;;;34.90;23.10;;;;;;6268744;28;20060;-75
2022/07/30 12:58:09;;;;;;;0.73;0.70;;;34.80;22.60;;;;;;6268817;28;20112;-75
2022/07/30 13:01:11;;;;;;;2.33;0.70;;;35.10;21.70;;;;;;6272173;28;20441;-75
2022/07/30 13:04:13;;;;;;;0.77;0.60;;;35.40;22.00;;;;;;6291817;28;20044;-76
2022/07/30 13:07:15;;;;;;;0.75;0.60;;;35.50;21.70;;;;;;6292660;28;20032;-76
2022/07/30 13:10:17;;;;;;;0.98;0.52;;;35.90;21.20;;;;;;6277556;28;20044;-75
2022/07/30 13:13:18;;;;;;;3.38;0.50;;;35.80;21.00;;;;;;6293671;28;20100;-76
2022/07/30 13:16:20;;;;;;;0.50;0.50;;;35.60;21.20;;;;;;6278793;28;20119;-76
2022/07/30 13:19:21;;;;;;;1.25;0.80;;;36.20;20.80;;;;;;6294156;28;20070;-75
2022/07/30 13:22:23;;;;;;;2.00;0.60;;;36.70;20.20;;;;;;6310987;28;20033;-75
2022/07/30 13:25:24;;;;;;;0.98;0.70;;;37.20;19.70;;;;;;6296865;28;20036;-75
2022/07/30 13:28:25;;;;;;;1.33;0.80;;;37.30;19.40;;;;;;6278047;28;20041;-76
2022/07/30 13:31:26;;;;;;;4.60;0.90;;;37.20;20.20;;;;;;6295777;28;20136;-77
2022/07/30 13:34:27;;;;;;;1.83;0.85;;;38.30;19.80;;;;;;6295818;28;20036;-75
2022/07/30 13:37:29;;;;;;;0.65;0.65;;;39.90;18.90;;;;;;6265364;28;20221;-74
2022/07/30 13:40:30;;;;;;;1.83;0.70;;;40.00;18.40;;;;;;6294434;28;20036;-74
2022/07/30 13:43:32;;;;;;;1.48;0.70;;;40.50;17.80;;;;;;6294113;28;20036;-74
2022/07/30 13:46:32;;;;;;;0.50;0.50;;;40.60;17.70;;;;;;6267539;28;20094;-74
2022/07/30 13:49:35;;;;;;;9.63;0.80;;;40.60;17.50;;;;;;6259576;28;20438;-75
2022/07/30 13:52:36;;;;;;;1.58;0.65;;;39.90;18.00;;;;;;6293156;28;20043;-74
2022/07/30 13:55:38;;;;;;;1.90;0.65;;;40.70;17.30;;;;;;6294730;28;20048;-74
2022/07/30 13:58:39;;;;;;;0.63;0.63;;;42.10;16.60;;;;;;6295199;28;20044;-75
2022/07/30 14:01:40;;;;;;;0.82;0.50;;;43.50;15.60;;;;;;6293786;28;20040;-76
2022/07/30 14:04:41;;;;;;;0.85;0.47;;;44.60;14.20;;;;;;6293099;28;20595;-75
2022/07/30 14:07:42;;;;;;;0.60;0.52;;;45.10;14.60;;;;;;6294372;28;20036;-75
2022/07/30 14:10:43;;;;;;;0.80;0.70;;;44.90;14.10;;;;;;6292994;28;20106;-75
2022/07/30 14:13:50;;;;;;;5.10;0.70;;;45.60;14.30;;;;;;6309783;28;20055;-75
2022/07/30 14:16:53;;;;;;;1.27;0.52;;;46.60;13.90;;;;;;6294088;28;20033;-75
2022/07/30 14:19:54;;;;;;;0.60;0.60;;;47.30;12.80;;;;;;6293381;28;20123;-75
2022/07/30 14:22:56;;;;;;;1.70;0.70;;;47.30;12.70;;;;;;6293966;28;20032;-75
2022/07/30 14:25:57;;;;;;;1.10;0.60;;;47.30;12.70;;;;;;6277048;28;20159;-75
2022/07/30 14:28:58;;;;;;;0.52;0.45;;;47.20;12.80;;;;;;6276413;28;20039;-75
2022/07/30 14:31:59;;;;;;;0.98;0.60;;;47.60;12.40;;;;;;6293914;28;20483;-75
2022/07/30 14:34:59;;;;;;;0.73;0.73;;;48.10;12.10;;;;;;6309247;28;20071;-75
2022/07/30 14:38:02;;;;;;;0.57;0.57;;;48.60;12.20;;;;;;6292880;28;20052;-75
2022/07/30 14:41:03;;;;;;;1.02;0.70;;;48.60;11.90;;;;;;6291688;28;20081;-75
2022/07/30 14:44:04;;;;;;;4.13;0.60;;;48.70;11.80;;;;;;6275339;28;20033;-75
2022/07/30 14:47:05;;;;;;;0.60;0.50;;;48.80;11.80;;;;;;6266302;28;20109;-75
2022/07/30 14:50:08;;;;;;;3.00;0.70;;;48.80;11.80;;;;;;6249239;28;20040;-74
2022/07/30 14:53:09;;;;;;;0.85;0.63;;;49.00;11.50;;;;;;6267418;28;20041;-74
2022/07/30 14:56:12;;;;;;;0.60;0.60;;;49.30;11.20;;;;;;6265932;28;20037;-74
2022/07/30 14:59:13;;;;;;;0.70;0.50;;;49.00;11.30;;;;;;6267539;28;20029;-74
2022/07/30 15:02:14;;;;;;;0.75;0.60;;;47.80;12.00;;;;;;6279363;28;20045;-75
2022/07/30 15:05:15;;;;;;;0.60;0.60;;;46.50;12.60;;;;;;6280668;28;20048;-75
2022/07/30 15:08:16;;;;;;;1.00;0.75;;;44.90;13.00;;;;;;6289875;28;20047;-75
2022/07/30 15:11:17;;;;;;;1.10;0.70;;;43.40;13.70;;;;;;6267438;28;20056;-75
2022/07/30 15:14:18;;;;;;;0.60;0.60;;;41.90;14.20;;;;;;6275723;28;20056;-75
2022/07/30 15:17:19;;;;;;;1.23;0.70;;;40.70;14.90;;;;;;6292829;28;20488;-75
2022/07/30 15:20:20;;;;;;;1.38;0.80;;;39.60;15.90;;;;;;6275837;28;20122;-75
2022/07/30 15:23:21;;;;;;;2.80;1.10;;;38.60;16.50;;;;;;6276333;28;20127;-75
2022/07/30 15:26:22;;;;;;;0.55;0.55;;;37.90;16.60;;;;;;6293039;28;20153;-74
2022/07/30 15:29:26;;;;;;;1.45;0.60;;;37.60;16.80;;;;;;6294134;28;20045;-75
2022/07/30 15:32:26;;;;;;;1.40;0.80;;;38.40;16.40;;;;;;6274929;28;20037;-75
2022/07/30 15:35:27;;;;;;;0.93;0.68;;;39.60;15.50;;;;;;6296472;28;20074;-74
2022/07/30 15:38:28;;;;;;;8.60;0.65;;;40.50;14.80;;;;;;6297952;28;20043;-75
2022/07/30 15:41:29;;;;;;;0.77;0.60;;;41.20;14.40;;;;;;6296730;28;20036;-75
2022/07/30 15:44:30;;;;;;;1.15;0.75;;;41.70;14.20;;;;;;6294235;28;20091;-75
2022/07/30 15:47:31;;;;;;;1.63;0.85;;;42.20;14.00;;;;;;6280289;28;20032;-75
2022/07/30 15:50:32;;;;;;;5.18;0.70;;;42.50;13.90;;;;;;6279799;28;20439;-75
2022/07/30 15:53:33;;;;;;;0.85;0.77;;;42.90;13.70;;;;;;6296649;28;20219;-75
2022/07/30 15:56:34;;;;;;;3.42;0.75;;;43.50;13.40;;;;;;6280277;28;20450;-75
2022/07/30 15:59:36;;;;;;;1.60;0.80;;;43.80;13.30;;;;;;6296739;28;20044;-76
2022/07/30 16:02:37;;;;;;;1.40;0.90;;;44.00;13.20;;;;;;6279925;28;20025;-75
2022/07/30 16:05:38;;;;;;;1.08;0.70;;;44.00;13.30;;;;;;6279779;28;20366;-75
2022/07/30 16:08:39;;;;;;;2.22;0.77;;;43.80;13.40;;;;;;6296809;28;20060;-76
2022/07/30 16:11:41;;;;;;;1.38;0.80;;;43.60;13.50;;;;;;6271168;28;20492;-75
2022/07/30 16:14:42;;;;;;;1.48;0.90;;;43.20;13.70;;;;;;6291006;28;20040;-75